Time,TemperatureF,DewpointF,PressureIn,WindDirection,WindDirectionDegrees,WindSpeedMPH,WindSpeedGustMPH,Humidity,HourlyPrecipIn,Conditions,Clouds,dailyrainin,SoftwareType,DateUTC
2013-08-13 00:08:00,57.0,53.0,29.98,SSW,195,1.0,-999.0,87,-99.99,,,0.00,weatherlink.com 1.10,2013-08-13 07:08:00,
2013-08-13 00:23:00,57.2,53.0,29.98,East,97,0.0,-999.0,87,-99.99,,,0.00,weatherlink.com 1.10,2013-08-13 07:23:00,
2013-08-13 00:38:00,57.6,54.0,29.98,South,187,0.0,-999.0,87,-99.99,,,0.00,weatherlink.com 1.10,2013-08-13 07:38:00,
2013-08-13 00:54:00,57.8,54.0,29.98,SE,129,0.0,-999.0,87,-99.99,,,0.00,weatherlink.com 1.10,2013-08-13 07:54:00,
2013-08-13 01:09:00,57.8,54.0,29.98,SW,227,0.0,-999.0,86,-99.99,,,0.00,weatherlink.com 1.10,2013-08-13 08:09:00,
2013-08-13 01:24:00,57.6,54.0,29.97,SSW,194,1.0,-999.0,86,-99.99,,,0.00,weatherlink.com 1.10,2013-08-13 08:24:00,
2013-08-13 01:39:00,57.6,54.0,29.97,SW,223,1.0,-999.0,87,-99.99,,,0.00,weatherlink.com 1.10,2013-08-13 08:39:00,
2013-08-13 01:54:00,57.5,54.0,29.97,SE,135,0.0,-999.0,87,-99.99,,,0.00,weatherlink.com 1.10,2013-08-13 08:54:00,
2013-08-13 02:09:00,57.5,54.0,29.97,West,275,0.0,-999.0,87,-99.99,,,0.00,weatherlink.com 1.10,2013-08-13 09:09:00,
2013-08-13 02:24:00,57.6,54.0,29.98,SSW,196,0.0,-999.0,87,-99.99,,,0.00,weatherlink.com 1.10,2013-08-13 09:24:00,
2013-08-13 02:39:00,57.6,54.0,29.97,SSW,194,0.0,-999.0,87,-99.99,,,0.00,weatherlink.com 1.10,2013-08-13 09:39:00,
2013-08-13 02:54:00,57.6,54.0,29.97,SSW,197,0.0,-999.0,87,-99.99,,,0.00,weatherlink.com 1.10,2013-08-13 09:54:00,
2013-08-13 03:09:00,57.6,54.0,29.97,SSW,197,0.0,-999.0,87,-99.99,,,0.00,weatherlink.com 1.10,2013-08-13 10:09:00,
2013-08-13 03:24:00,57.8,54.0,29.97,South,178,0.0,-999.0,88,-99.99,,,0.00,weatherlink.com 1.10,2013-08-13 10:24:00,
2013-08-13 03:39:00,57.8,54.0,29.97,South,188,0.0,-999.0,87,-99.99,,,0.00,weatherlink.com 1.10,2013-08-13 10:39:00,
2013-08-13 03:54:00,57.8,54.0,29.96,South,182,0.0,-999.0,88,-99.99,,,0.00,weatherlink.com 1.10,2013-08-13 10:54:00,
2013-08-13 04:09:00,57.6,54.0,29.96,SW,223,0.0,-999.0,88,-99.99,,,0.00,weatherlink.com 1.10,2013-08-13 11:09:00,
2013-08-13 04:24:00,57.6,54.0,29.96,SW,223,0.0,-999.0,88,-99.99,,,0.00,weatherlink.com 1.10,2013-08-13 11:24:00,
2013-08-13 04:39:00,57.6,54.0,29.96,SW,223,0.0,-999.0,88,-99.99,,,0.00,weatherlink.com 1.10,2013-08-13 11:39:00,
2013-08-13 04:54:00,57.6,54.0,29.96,SW,223,0.0,-999.0,88,-99.99,,,0.00,weatherlink.com 1.10,2013-08-13 11:54:00,
2013-08-13 05:09:00,57.5,54.0,29.96,SW,223,0.0,-999.0,88,-99.99,,,0.00,weatherlink.com 1.10,2013-08-13 12:09:00,
2013-08-13 05:24:00,57.5,54.0,29.96,SW,223,0.0,-999.0,88,-99.99,,,0.00,weatherlink.com 1.10,2013-08-13 12:24:00,
2013-08-13 05:39:00,57.5,54.0,29.96,SW,223,0.0,-999.0,88,-99.99,,,0.00,weatherlink.com 1.10,2013-08-13 12:39:00,
2013-08-13 05:54:00,57.5,54.0,29.95,SW,223,0.0,-999.0,88,-99.99,,,0.00,weatherlink.com 1.10,2013-08-13 12:54:00,
2013-08-13 06:09:00,57.3,54.0,29.96,SW,223,0.0,-999.0,88,-99.99,,,0.00,weatherlink.com 1.10,2013-08-13 13:09:00,
2013-08-13 06:24:00,57.3,54.0,29.96,East,86,0.0,-999.0,89,-99.99,,,0.00,weatherlink.com 1.10,2013-08-13 13:24:00,
2013-08-13 06:39:00,57.5,54.0,29.96,SE,144,0.0,-999.0,88,-99.99,,,0.00,weatherlink.com 1.10,2013-08-13 13:39:00,
2013-08-13 06:54:00,57.5,54.0,29.96,SE,144,0.0,-999.0,88,-99.99,,,0.00,weatherlink.com 1.10,2013-08-13 13:54:00,
2013-08-13 07:09:00,57.5,54.0,29.96,SSE,167,0.0,-999.0,88,-99.99,,,0.00,weatherlink.com 1.10,2013-08-13 14:09:00,
2013-08-13 07:24:00,57.5,54.0,29.97,SSE,161,0.0,-999.0,88,-99.99,,,0.00,weatherlink.com 1.10,2013-08-13 14:24:00,
2013-08-13 07:39:00,57.6,54.0,29.97,SSE,155,0.0,-999.0,87,-99.99,,,0.00,weatherlink.com 1.10,2013-08-13 14:39:00,
2013-08-13 07:54:00,58.0,54.0,29.98,SW,223,0.0,-999.0,87,-99.99,,,0.00,weatherlink.com 1.10,2013-08-13 14:54:00,
2013-08-13 08:09:00,59.3,55.0,29.98,SSE,159,0.0,-999.0,85,-99.99,,,0.00,weatherlink.com 1.10,2013-08-13 15:09:00,
2013-08-13 08:24:00,60.9,55.0,29.98,ESE,114,0.0,-999.0,80,-99.99,,,0.00,weatherlink.com 1.10,2013-08-13 15:24:00,
2013-08-13 08:39:00,62.4,55.0,29.98,ESE,117,1.0,-999.0,76,-99.99,,,0.00,weatherlink.com 1.10,2013-08-13 15:39:00,
2013-08-13 08:54:00,63.4,55.0,29.98,South,178,0.0,-999.0,73,-99.99,,,0.00,weatherlink.com 1.10,2013-08-13 15:54:00,
2013-08-13 09:09:00,65.0,55.0,29.98,South,178,0.0,-999.0,71,-99.99,,,0.00,weatherlink.com 1.10,2013-08-13 16:09:00,
2013-08-13 09:24:00,66.3,55.0,29.98,South,178,1.0,-999.0,68,-99.99,,,0.00,weatherlink.com 1.10,2013-08-13 16:24:00,
2013-08-13 09:39:00,67.6,55.0,29.98,South,175,0.0,-999.0,64,-99.99,,,0.00,weatherlink.com 1.10,2013-08-13 16:39:00,
2013-08-13 09:54:00,68.4,56.0,29.98,South,187,2.0,-999.0,64,-99.99,,,0.00,weatherlink.com 1.10,2013-08-13 16:54:00,
2013-08-13 10:24:00,69.6,57.0,29.98,WSW,242,0.0,-999.0,64,-99.99,,,0.00,weatherlink.com 1.10,2013-08-13 17:24:00,
2013-08-13 10:39:00,69.1,57.0,29.98,WSW,245,0.0,-999.0,66,-99.99,,,0.00,weatherlink.com 1.10,2013-08-13 17:39:00,
2013-08-13 10:54:00,69.3,57.0,29.98,WSW,255,1.0,-999.0,66,-99.99,,,0.00,weatherlink.com 1.10,2013-08-13 17:54:00,
2013-08-13 11:09:00,70.4,57.0,29.98,South,180,1.0,-999.0,63,-99.99,,,0.00,weatherlink.com 1.10,2013-08-13 18:09:00,
2013-08-13 11:24:00,71.5,58.0,29.97,SW,229,0.0,-999.0,63,-99.99,,,0.00,weatherlink.com 1.10,2013-08-13 18:24:00,
2013-08-13 11:39:00,72.3,57.0,29.97,SSE,148,1.0,-999.0,59,-99.99,,,0.00,weatherlink.com 1.10,2013-08-13 18:39:00,
2013-08-13 11:54:00,72.8,58.0,29.97,WNW,293,0.0,-999.0,60,-99.99,,,0.00,weatherlink.com 1.10,2013-08-13 18:54:00,
2013-08-13 12:09:00,73.0,57.0,29.97,WSW,248,0.0,-999.0,58,-99.99,,,0.00,weatherlink.com 1.10,2013-08-13 19:09:00,
2013-08-13 12:24:00,73.3,57.0,29.97,WSW,245,1.0,-999.0,57,-99.99,,,0.00,weatherlink.com 1.10,2013-08-13 19:24:00,
2013-08-13 12:40:00,74.2,58.0,29.96,SW,231,1.0,-999.0,58,-99.99,,,0.00,weatherlink.com 1.10,2013-08-13 19:40:00,
2013-08-13 12:55:00,76.5,59.0,29.96,SW,219,0.0,-999.0,54,-99.99,,,0.00,weatherlink.com 1.10,2013-08-13 19:55:00,
2013-08-13 13:10:00,75.8,57.0,29.96,South,186,0.0,-999.0,53,-99.99,,,0.00,weatherlink.com 1.10,2013-08-13 20:10:00,
2013-08-13 13:25:00,76.5,57.0,29.95,SW,225,0.0,-999.0,51,-99.99,,,0.00,weatherlink.com 1.10,2013-08-13 20:25:00,
2013-08-13 13:40:00,77.0,56.0,29.95,West,261,0.0,-999.0,49,-99.99,,,0.00,weatherlink.com 1.10,2013-08-13 20:40:00,
2013-08-13 13:55:00,76.0,56.0,29.95,WSW,254,4.0,-999.0,51,-99.99,,,0.00,weatherlink.com 1.10,2013-08-13 20:55:00,
2013-08-13 14:11:00,74.4,56.0,29.96,SW,230,0.0,-999.0,53,-99.99,,,0.00,weatherlink.com 1.10,2013-08-13 21:11:00,
2013-08-13 14:25:00,75.3,56.0,29.95,WSW,237,0.0,-999.0,52,-99.99,,,0.00,weatherlink.com 1.10,2013-08-13 21:25:00,
2013-08-13 14:40:00,75.4,57.0,29.95,WSW,253,0.0,-999.0,53,-99.99,,,0.00,weatherlink.com 1.10,2013-08-13 21:40:00,
2013-08-13 14:55:00,73.5,56.0,29.95,South,185,0.0,-999.0,55,-99.99,,,0.00,weatherlink.com 1.10,2013-08-13 21:55:00,
2013-08-13 15:10:00,74.7,56.0,29.95,WSW,248,0.0,-999.0,53,-99.99,,,0.00,weatherlink.com 1.10,2013-08-13 22:10:00,
2013-08-13 15:25:00,74.0,56.0,29.95,SSE,152,1.0,-999.0,53,-99.99,,,0.00,weatherlink.com 1.10,2013-08-13 22:25:00,
2013-08-13 15:41:00,72.5,57.0,29.95,West,268,2.0,-999.0,58,-99.99,,,0.00,weatherlink.com 1.10,2013-08-13 22:41:00,
2013-08-13 15:56:00,71.8,56.0,29.95,SE,136,3.0,-999.0,58,-99.99,,,0.00,weatherlink.com 1.10,2013-08-13 22:56:00,
2013-08-13 16:11:00,72.0,56.0,29.95,SW,215,1.0,-999.0,58,-99.99,,,0.00,weatherlink.com 1.10,2013-08-13 23:11:00,
2013-08-13 16:26:00,71.5,56.0,29.95,WSW,248,0.0,-999.0,59,-99.99,,,0.00,weatherlink.com 1.10,2013-08-13 23:26:00,
2013-08-13 16:40:00,71.8,56.0,29.95,South,175,1.0,-999.0,58,-99.99,,,0.00,weatherlink.com 1.10,2013-08-13 23:40:00,
2013-08-13 16:56:00,71.1,55.0,29.95,SW,217,0.0,-999.0,58,-99.99,,,0.00,weatherlink.com 1.10,2013-08-13 23:56:00,
2013-08-13 17:11:00,69.4,55.0,29.95,SW,219,0.0,-999.0,60,-99.99,,,0.00,weatherlink.com 1.10,2013-08-14 00:11:00,
2013-08-13 17:25:00,69.8,56.0,29.95,SW,236,0.0,-999.0,61,-99.99,,,0.00,weatherlink.com 1.10,2013-08-14 00:25:00,
2013-08-13 17:40:00,70.6,56.0,29.95,NW,317,0.0,-999.0,60,-99.99,,,0.00,weatherlink.com 1.10,2013-08-14 00:40:00,
2013-08-13 17:55:00,70.4,56.0,29.95,West,268,0.0,-999.0,60,-99.99,,,0.00,weatherlink.com 1.10,2013-08-14 00:55:00,
2013-08-13 18:11:00,70.1,55.0,29.94,SSW,206,0.0,-999.0,60,-99.99,,,0.00,weatherlink.com 1.10,2013-08-14 01:11:00,
2013-08-13 18:26:00,69.9,56.0,29.93,NNW,339,0.0,-999.0,61,-99.99,,,0.00,weatherlink.com 1.10,2013-08-14 01:26:00,
2013-08-13 18:41:00,68.9,55.0,29.93,West,271,0.0,-999.0,61,-99.99,,,0.00,weatherlink.com 1.10,2013-08-14 01:41:00,
2013-08-13 18:56:00,67.6,55.0,29.92,West,271,0.0,-999.0,64,-99.99,,,0.00,weatherlink.com 1.10,2013-08-14 01:56:00,
2013-08-13 19:11:00,67.1,55.0,29.92,West,271,0.0,-999.0,65,-99.99,,,0.00,weatherlink.com 1.10,2013-08-14 02:11:00,
2013-08-13 19:26:00,66.8,55.0,29.92,West,271,0.0,-999.0,66,-99.99,,,0.00,weatherlink.com 1.10,2013-08-14 02:26:00,
2013-08-13 19:41:00,66.3,55.0,29.93,West,271,0.0,-999.0,67,-99.99,,,0.00,weatherlink.com 1.10,2013-08-14 02:41:00,
2013-08-13 19:56:00,65.6,55.0,29.93,West,271,0.0,-999.0,68,-99.99,,,0.00,weatherlink.com 1.10,2013-08-14 02:56:00,
2013-08-13 20:11:00,64.7,55.0,29.93,South,181,0.0,-999.0,71,-99.99,,,0.00,weatherlink.com 1.10,2013-08-14 03:11:00,
2013-08-13 20:25:00,63.9,55.0,29.93,South,181,0.0,-999.0,72,-99.99,,,0.00,weatherlink.com 1.10,2013-08-14 03:25:00,
2013-08-13 20:40:00,63.1,54.0,29.93,South,181,0.0,-999.0,73,-99.99,,,0.00,weatherlink.com 1.10,2013-08-14 03:40:00,
2013-08-13 20:55:00,62.4,54.0,29.93,South,181,0.0,-999.0,75,-99.99,,,0.00,weatherlink.com 1.10,2013-08-14 03:55:00,
2013-08-13 21:10:00,62.1,54.0,29.94,NE,55,0.0,-999.0,74,-99.99,,,0.00,weatherlink.com 1.10,2013-08-14 04:10:00,
2013-08-13 21:25:00,61.8,53.0,29.95,SW,220,0.0,-999.0,73,-99.99,,,0.00,weatherlink.com 1.10,2013-08-14 04:25:00,
2013-08-13 21:41:00,61.6,53.0,29.95,South,173,0.0,-999.0,73,-99.99,,,0.00,weatherlink.com 1.10,2013-08-14 04:41:00,
2013-08-13 21:55:00,61.2,53.0,29.95,South,178,0.0,-999.0,74,-99.99,,,0.00,weatherlink.com 1.10,2013-08-14 04:55:00,
2013-08-13 22:10:00,60.7,53.0,29.95,South,178,0.0,-999.0,75,-99.99,,,0.00,weatherlink.com 1.10,2013-08-14 05:10:00,
2013-08-13 22:25:00,60.2,53.0,29.95,South,178,0.0,-999.0,77,-99.99,,,0.00,weatherlink.com 1.10,2013-08-14 05:25:00,
2013-08-13 22:40:00,59.8,53.0,29.96,South,178,0.0,-999.0,79,-99.99,,,0.00,weatherlink.com 1.10,2013-08-14 05:40:00,
2013-08-13 22:56:00,59.3,53.0,29.95,South,178,0.0,-999.0,80,-99.99,,,0.00,weatherlink.com 1.10,2013-08-14 05:56:00,
2013-08-13 23:10:00,58.7,53.0,29.95,South,178,0.0,-999.0,81,-99.99,,,0.00,weatherlink.com 1.10,2013-08-14 06:10:00,
2013-08-13 23:25:00,58.9,54.0,29.95,SW,229,0.0,-999.0,83,-99.99,,,0.00,weatherlink.com 1.10,2013-08-14 06:25:00,
2013-08-13 23:41:00,59.0,54.0,29.95,SW,216,0.0,-999.0,83,-99.99,,,0.00,weatherlink.com 1.10,2013-08-14 06:41:00,
2013-08-13 23:56:00,59.2,53.0,29.96,SW,215,0.0,-999.0,81,-99.99,,,0.00,weatherlink.com 1.10,2013-08-14 06:56:00,